DAFH

Details ICAO DAFH (HRM)
Name HASSI R MEL
Region Algeria
Timezone Africa/Algiers (UTC+1.0)
Plans Departing 1
Arriving 2
Stats Elevation 2,540 ft / 774 m (AMSL)
Location 32.931368° 3.310321°
Runways 2
Magnetic Variation 0.946° E
Sunrise 2017-12-14 06:42:53 UTC / 2017-12-14 07:42:53 Local
Sunset 2017-12-14 16:42:47 UTC / 2017-12-14 17:42:47 Local
Advertisement - Login to hide

Runways

ID Width Length Bearing (true) Bearing (mag) Surface Threshold Offset Overrun Length
08 148 ft / 45 m 9,818 ft / 2,993 m 79.11° 78.16° Asphalt 0 ft / 0 m 340 ft / 104 m
09 100 ft / 30 m 4,684 ft / 1,428 m 88.10° 87.15° Asphalt 280 ft / 85 m 175 ft / 53 m
26 148 ft / 45 m 9,818 ft / 2,993 m 259.13° 258.18° Asphalt 0 ft / 0 m 125 ft / 38 m
27 100 ft / 30 m 4,684 ft / 1,428 m 268.11° 267.16° Asphalt 0 ft / 0 m 0 ft / 0 m

Map

Weather


0- 5 10 15 20 25 30 35+ Temperature / ° C

Clouds and Precipitation
Forecast for 2017-12-14 12:00 UTC. Updated an hour ago

Ground ~20,000 ft ~40,000 ft Winds

METAR

DAFH 141000Z 00000KT CAVOK 12/03 Q1028

TAF

Not found
Warning: Do not use this data for real-world aviation or navigation. No guarantee of current accuracy is given.